sensor_id;sensor_type;location;lat;lon;timestamp;P1;durP1;ratioP1;P2;durP2;ratioP2
8757;SDS011;4415;42.152;24.744;2023-06-26T00:01:44;7.17;;;6.40;;
8757;SDS011;4415;42.152;24.744;2023-06-26T00:04:09;6.47;;;5.93;;
8757;SDS011;4415;42.152;24.744;2023-06-26T00:06:39;7.32;;;6.63;;
8757;SDS011;4415;42.152;24.744;2023-06-26T00:09:05;7.90;;;6.50;;
8757;SDS011;4415;42.152;24.744;2023-06-26T00:11:30;7.30;;;6.70;;
8757;SDS011;4415;42.152;24.744;2023-06-26T00:13:58;8.93;;;6.80;;
8757;SDS011;4415;42.152;24.744;2023-06-26T00:16:25;9.00;;;7.00;;
8757;SDS011;4415;42.152;24.744;2023-06-26T00:18:51;7.63;;;6.40;;
8757;SDS011;4415;42.152;24.744;2023-06-26T00:21:16;7.28;;;6.57;;
8757;SDS011;4415;42.152;24.744;2023-06-26T00:23:42;9.50;;;6.95;;
8757;SDS011;4415;42.152;24.744;2023-06-26T00:26:07;7.75;;;6.63;;
8757;SDS011;4415;42.152;24.744;2023-06-26T00:28:34;7.32;;;6.60;;
8757;SDS011;4415;42.152;24.744;2023-06-26T00:31:00;7.82;;;7.07;;
8757;SDS011;4415;42.152;24.744;2023-06-26T00:33:25;8.35;;;7.35;;
8757;SDS011;4415;42.152;24.744;2023-06-26T00:35:50;7.80;;;6.70;;
8757;SDS011;4415;42.152;24.744;2023-06-26T00:38:16;8.80;;;6.95;;
8757;SDS011;4415;42.152;24.744;2023-06-26T00:40:42;7.85;;;7.05;;
8757;SDS011;4415;42.152;24.744;2023-06-26T00:43:08;7.88;;;7.10;;
8757;SDS011;4415;42.152;24.744;2023-06-26T00:45:33;8.50;;;6.93;;
8757;SDS011;4415;42.152;24.744;2023-06-26T00:47:59;9.18;;;7.20;;
8757;SDS011;4415;42.152;24.744;2023-06-26T00:50:24;7.57;;;6.88;;
8757;SDS011;4415;42.152;24.744;2023-06-26T00:52:49;7.53;;;6.82;;
8757;SDS011;4415;42.152;24.744;2023-06-26T00:55:15;16.77;;;7.55;;
8757;SDS011;4415;42.152;24.744;2023-06-26T00:57:40;7.63;;;6.85;;
8757;SDS011;4415;42.152;24.744;2023-06-26T01:00:07;10.93;;;7.32;;
8757;SDS011;4415;42.152;24.744;2023-06-26T01:02:33;7.78;;;7.05;;
8757;SDS011;4415;42.152;24.744;2023-06-26T01:04:59;8.88;;;7.25;;
8757;SDS011;4415;42.152;24.744;2023-06-26T01:07:28;7.43;;;6.72;;
8757;SDS011;4415;42.152;24.744;2023-06-26T01:09:54;8.77;;;7.55;;
8757;SDS011;4415;42.152;24.744;2023-06-26T01:12:19;8.95;;;7.22;;
8757;SDS011;4415;42.152;24.744;2023-06-26T01:14:45;8.13;;;7.30;;
8757;SDS011;4415;42.152;24.744;2023-06-26T01:17:10;10.93;;;7.50;;
8757;SDS011;4415;42.152;24.744;2023-06-26T01:19:40;8.80;;;7.88;;
8757;SDS011;4415;42.152;24.744;2023-06-26T01:25:02;8.25;;;7.32;;
8757;SDS011;4415;42.152;24.744;2023-06-26T01:27:38;8.73;;;7.82;;
8757;SDS011;4415;42.152;24.744;2023-06-26T01:30:04;8.65;;;7.78;;
8757;SDS011;4415;42.152;24.744;2023-06-26T01:32:31;9.00;;;7.60;;
8757;SDS011;4415;42.152;24.744;2023-06-26T01:34:58;10.52;;;8.30;;
8757;SDS011;4415;42.152;24.744;2023-06-26T01:37:24;9.00;;;8.07;;
8757;SDS011;4415;42.152;24.744;2023-06-26T01:39:50;9.33;;;8.10;;
8757;SDS011;4415;42.152;24.744;2023-06-26T01:42:15;11.63;;;8.17;;
8757;SDS011;4415;42.152;24.744;2023-06-26T01:44:45;8.90;;;8.00;;
8757;SDS011;4415;42.152;24.744;2023-06-26T01:47:12;9.85;;;8.25;;
8757;SDS011;4415;42.152;24.744;2023-06-26T01:49:56;10.77;;;8.37;;
8757;SDS011;4415;42.152;24.744;2023-06-26T01:52:42;9.57;;;8.60;;
8757;SDS011;4415;42.152;24.744;2023-06-26T01:55:17;10.35;;;9.35;;
8757;SDS011;4415;42.152;24.744;2023-06-26T01:57:45;9.73;;;8.75;;
8757;SDS011;4415;42.152;24.744;2023-06-26T02:00:13;11.95;;;8.75;;
8757;SDS011;4415;42.152;24.744;2023-06-26T02:02:42;11.13;;;8.67;;
8757;SDS011;4415;42.152;24.744;2023-06-26T02:05:08;9.50;;;8.60;;
8757;SDS011;4415;42.152;24.744;2023-06-26T02:07:34;10.17;;;9.13;;
8757;SDS011;4415;42.152;24.744;2023-06-26T02:09:59;11.63;;;9.88;;
8757;SDS011;4415;42.152;24.744;2023-06-26T02:12:25;9.93;;;9.13;;
8757;SDS011;4415;42.152;24.744;2023-06-26T02:14:50;10.83;;;9.30;;
8757;SDS011;4415;42.152;24.744;2023-06-26T02:17:16;9.70;;;8.82;;
8757;SDS011;4415;42.152;24.744;2023-06-26T02:19:41;10.45;;;9.40;;
8757;SDS011;4415;42.152;24.744;2023-06-26T02:22:12;10.95;;;9.32;;
8757;SDS011;4415;42.152;24.744;2023-06-26T02:24:41;11.60;;;9.35;;
8757;SDS011;4415;42.152;24.744;2023-06-26T02:27:08;11.45;;;9.25;;
8757;SDS011;4415;42.152;24.744;2023-06-26T02:29:34;11.25;;;9.63;;
8757;SDS011;4415;42.152;24.744;2023-06-26T02:32:00;10.87;;;9.73;;
8757;SDS011;4415;42.152;24.744;2023-06-26T02:34:26;11.97;;;10.10;;
8757;SDS011;4415;42.152;24.744;2023-06-26T02:36:51;11.20;;;10.13;;
8757;SDS011;4415;42.152;24.744;2023-06-26T02:39:19;11.98;;;9.93;;
8757;SDS011;4415;42.152;24.744;2023-06-26T02:41:45;11.32;;;10.20;;
8757;SDS011;4415;42.152;24.744;2023-06-26T02:44:10;11.70;;;10.23;;
8757;SDS011;4415;42.152;24.744;2023-06-26T02:46:37;10.07;;;9.00;;
8757;SDS011;4415;42.152;24.744;2023-06-26T02:49:02;13.47;;;9.70;;
8757;SDS011;4415;42.152;24.744;2023-06-26T02:51:27;12.52;;;10.63;;
8757;SDS011;4415;42.152;24.744;2023-06-26T02:53:53;12.03;;;10.53;;
8757;SDS011;4415;42.152;24.744;2023-06-26T02:56:18;13.13;;;10.57;;
8757;SDS011;4415;42.152;24.744;2023-06-26T02:58:43;14.43;;;11.05;;
8757;SDS011;4415;42.152;24.744;2023-06-26T03:01:09;13.73;;;10.48;;
8757;SDS011;4415;42.152;24.744;2023-06-26T03:03:34;12.73;;;10.75;;
8757;SDS011;4415;42.152;24.744;2023-06-26T03:06:06;13.20;;;11.07;;
8757;SDS011;4415;42.152;24.744;2023-06-26T03:08:32;13.07;;;11.43;;
8757;SDS011;4415;42.152;24.744;2023-06-26T03:10:58;14.18;;;11.25;;
8757;SDS011;4415;42.152;24.744;2023-06-26T03:13:23;16.43;;;10.50;;
8757;SDS011;4415;42.152;24.744;2023-06-26T03:15:49;12.03;;;10.90;;
8757;SDS011;4415;42.152;24.744;2023-06-26T03:18:14;12.87;;;11.30;;
8757;SDS011;4415;42.152;24.744;2023-06-26T03:20:40;11.97;;;10.53;;
8757;SDS011;4415;42.152;24.744;2023-06-26T03:23:05;11.95;;;10.75;;
8757;SDS011;4415;42.152;24.744;2023-06-26T03:25:30;13.43;;;10.60;;
8757;SDS011;4415;42.152;24.744;2023-06-26T03:27:56;13.10;;;10.43;;
8757;SDS011;4415;42.152;24.744;2023-06-26T03:30:21;12.40;;;11.30;;
8757;SDS011;4415;42.152;24.744;2023-06-26T03:32:47;11.73;;;10.53;;
8757;SDS011;4415;42.152;24.744;2023-06-26T03:35:12;14.20;;;11.30;;
8757;SDS011;4415;42.152;24.744;2023-06-26T03:37:37;14.10;;;11.05;;
8757;SDS011;4415;42.152;24.744;2023-06-26T03:40:03;12.90;;;11.57;;
8757;SDS011;4415;42.152;24.744;2023-06-26T03:42:29;12.87;;;11.50;;
8757;SDS011;4415;42.152;24.744;2023-06-26T03:44:55;12.65;;;11.35;;
8757;SDS011;4415;42.152;24.744;2023-06-26T03:47:20;14.95;;;10.73;;
8757;SDS011;4415;42.152;24.744;2023-06-26T03:49:46;14.13;;;11.73;;
8757;SDS011;4415;42.152;24.744;2023-06-26T03:52:11;15.73;;;11.50;;
8757;SDS011;4415;42.152;24.744;2023-06-26T03:54:36;16.52;;;10.93;;
8757;SDS011;4415;42.152;24.744;2023-06-26T03:57:02;14.70;;;10.77;;
8757;SDS011;4415;42.152;24.744;2023-06-26T03:59:27;15.30;;;10.73;;
8757;SDS011;4415;42.152;24.744;2023-06-26T04:01:53;13.10;;;11.10;;
8757;SDS011;4415;42.152;24.744;2023-06-26T04:04:18;11.30;;;10.20;;
8757;SDS011;4415;42.152;24.744;2023-06-26T04:06:43;13.43;;;10.45;;
8757;SDS011;4415;42.152;24.744;2023-06-26T04:09:09;11.00;;;9.80;;
8757;SDS011;4415;42.152;24.744;2023-06-26T04:11:34;10.77;;;9.68;;
8757;SDS011;4415;42.152;24.744;2023-06-26T04:14:00;10.80;;;9.80;;
8757;SDS011;4415;42.152;24.744;2023-06-26T04:16:25;10.95;;;9.93;;
8757;SDS011;4415;42.152;24.744;2023-06-26T04:18:51;11.35;;;10.23;;
8757;SDS011;4415;42.152;24.744;2023-06-26T04:21:20;12.45;;;9.95;;
8757;SDS011;4415;42.152;24.744;2023-06-26T04:23:45;12.05;;;10.70;;
8757;SDS011;4415;42.152;24.744;2023-06-26T04:26:12;11.70;;;10.50;;
8757;SDS011;4415;42.152;24.744;2023-06-26T04:28:39;12.15;;;10.95;;
8757;SDS011;4415;42.152;24.744;2023-06-26T04:31:05;11.98;;;10.77;;
8757;SDS011;4415;42.152;24.744;2023-06-26T04:33:31;12.10;;;10.85;;
8757;SDS011;4415;42.152;24.744;2023-06-26T04:35:56;12.55;;;11.15;;
8757;SDS011;4415;42.152;24.744;2023-06-26T04:38:22;15.77;;;10.43;;
8757;SDS011;4415;42.152;24.744;2023-06-26T04:40:48;11.95;;;10.80;;
8757;SDS011;4415;42.152;24.744;2023-06-26T04:43:14;11.73;;;10.52;;
8757;SDS011;4415;42.152;24.744;2023-06-26T04:45:40;12.82;;;11.05;;
8757;SDS011;4415;42.152;24.744;2023-06-26T04:48:05;13.27;;;10.93;;
8757;SDS011;4415;42.152;24.744;2023-06-26T04:50:31;12.55;;;11.15;;
8757;SDS011;4415;42.152;24.744;2023-06-26T04:52:58;13.02;;;11.73;;
8757;SDS011;4415;42.152;24.744;2023-06-26T04:55:24;12.45;;;10.52;;
8757;SDS011;4415;42.152;24.744;2023-06-26T04:57:50;12.13;;;11.02;;
8757;SDS011;4415;42.152;24.744;2023-06-26T05:00:15;11.13;;;10.23;;
8757;SDS011;4415;42.152;24.744;2023-06-26T05:02:41;9.90;;;9.07;;
8757;SDS011;4415;42.152;24.744;2023-06-26T05:05:06;11.77;;;10.20;;
8757;SDS011;4415;42.152;24.744;2023-06-26T05:07:32;12.02;;;10.20;;
8757;SDS011;4415;42.152;24.744;2023-06-26T05:09:57;12.23;;;10.60;;
8757;SDS011;4415;42.152;24.744;2023-06-26T05:12:23;11.70;;;9.88;;
8757;SDS011;4415;42.152;24.744;2023-06-26T05:14:48;10.82;;;9.68;;
8757;SDS011;4415;42.152;24.744;2023-06-26T05:17:14;12.65;;;10.73;;
8757;SDS011;4415;42.152;24.744;2023-06-26T05:19:40;11.35;;;9.88;;
8757;SDS011;4415;42.152;24.744;2023-06-26T05:22:05;11.02;;;10.02;;
8757;SDS011;4415;42.152;24.744;2023-06-26T05:24:35;11.18;;;10.23;;
8757;SDS011;4415;42.152;24.744;2023-06-26T05:27:02;10.30;;;9.38;;
8757;SDS011;4415;42.152;24.744;2023-06-26T05:29:29;10.35;;;9.55;;
8757;SDS011;4415;42.152;24.744;2023-06-26T05:31:58;9.57;;;8.77;;
8757;SDS011;4415;42.152;24.744;2023-06-26T05:34:25;12.35;;;9.02;;
8757;SDS011;4415;42.152;24.744;2023-06-26T05:36:55;9.90;;;9.00;;
8757;SDS011;4415;42.152;24.744;2023-06-26T05:39:23;9.98;;;9.00;;
8757;SDS011;4415;42.152;24.744;2023-06-26T05:41:49;9.60;;;8.75;;
8757;SDS011;4415;42.152;24.744;2023-06-26T05:44:16;9.70;;;8.52;;
8757;SDS011;4415;42.152;24.744;2023-06-26T05:46:41;9.55;;;8.75;;
8757;SDS011;4415;42.152;24.744;2023-06-26T05:49:07;10.80;;;9.02;;
8757;SDS011;4415;42.152;24.744;2023-06-26T05:51:32;10.63;;;9.52;;
8757;SDS011;4415;42.152;24.744;2023-06-26T05:53:58;12.85;;;9.32;;
8757;SDS011;4415;42.152;24.744;2023-06-26T05:56:24;9.10;;;8.40;;
8757;SDS011;4415;42.152;24.744;2023-06-26T05:58:49;9.15;;;8.25;;
8757;SDS011;4415;42.152;24.744;2023-06-26T06:01:16;8.55;;;7.93;;
8757;SDS011;4415;42.152;24.744;2023-06-26T06:03:41;20.17;;;8.43;;
8757;SDS011;4415;42.152;24.744;2023-06-26T06:06:07;9.27;;;8.20;;
8757;SDS011;4415;42.152;24.744;2023-06-26T06:08:32;9.07;;;7.88;;
8757;SDS011;4415;42.152;24.744;2023-06-26T06:10:59;9.00;;;8.23;;
8757;SDS011;4415;42.152;24.744;2023-06-26T06:13:24;11.68;;;8.77;;
8757;SDS011;4415;42.152;24.744;2023-06-26T06:15:50;9.77;;;8.80;;
8757;SDS011;4415;42.152;24.744;2023-06-26T06:18:15;13.65;;;8.82;;
8757;SDS011;4415;42.152;24.744;2023-06-26T06:20:41;9.35;;;8.07;;
8757;SDS011;4415;42.152;24.744;2023-06-26T06:23:06;9.45;;;8.52;;
8757;SDS011;4415;42.152;24.744;2023-06-26T06:25:32;9.63;;;8.93;;
8757;SDS011;4415;42.152;24.744;2023-06-26T06:27:57;9.20;;;8.50;;
8757;SDS011;4415;42.152;24.744;2023-06-26T06:30:23;9.73;;;8.82;;
8757;SDS011;4415;42.152;24.744;2023-06-26T06:32:48;8.90;;;8.05;;
8757;SDS011;4415;42.152;24.744;2023-06-26T06:35:19;9.18;;;8.10;;
8757;SDS011;4415;42.152;24.744;2023-06-26T06:37:44;9.30;;;8.52;;
8757;SDS011;4415;42.152;24.744;2023-06-26T06:40:10;8.70;;;7.90;;
8757;SDS011;4415;42.152;24.744;2023-06-26T06:42:36;8.52;;;7.93;;
8757;SDS011;4415;42.152;24.744;2023-06-26T06:45:02;12.98;;;7.78;;
8757;SDS011;4415;42.152;24.744;2023-06-26T06:47:28;10.43;;;8.38;;
8757;SDS011;4415;42.152;24.744;2023-06-26T06:49:53;10.82;;;7.97;;
8757;SDS011;4415;42.152;24.744;2023-06-26T06:52:19;8.57;;;7.70;;
8757;SDS011;4415;42.152;24.744;2023-06-26T06:54:54;8.80;;;7.93;;
8757;SDS011;4415;42.152;24.744;2023-06-26T06:57:21;7.82;;;7.20;;
8757;SDS011;4415;42.152;24.744;2023-06-26T06:59:47;10.85;;;7.90;;
8757;SDS011;4415;42.152;24.744;2023-06-26T07:02:13;8.00;;;7.30;;
8757;SDS011;4415;42.152;24.744;2023-06-26T07:04:40;8.35;;;7.53;;
8757;SDS011;4415;42.152;24.744;2023-06-26T07:07:05;13.93;;;7.05;;
8757;SDS011;4415;42.152;24.744;2023-06-26T07:09:31;8.30;;;7.50;;
8757;SDS011;4415;42.152;24.744;2023-06-26T07:11:56;10.23;;;8.90;;
8757;SDS011;4415;42.152;24.744;2023-06-26T07:14:22;7.90;;;7.30;;
8757;SDS011;4415;42.152;24.744;2023-06-26T07:16:48;11.98;;;8.13;;
8757;SDS011;4415;42.152;24.744;2023-06-26T07:19:13;8.07;;;7.38;;
8757;SDS011;4415;42.152;24.744;2023-06-26T07:21:39;9.60;;;8.63;;
8757;SDS011;4415;42.152;24.744;2023-06-26T07:24:04;12.23;;;9.30;;
8757;SDS011;4415;42.152;24.744;2023-06-26T07:26:29;9.48;;;8.07;;
8757;SDS011;4415;42.152;24.744;2023-06-26T07:28:55;10.93;;;9.25;;
8757;SDS011;4415;42.152;24.744;2023-06-26T07:31:21;10.60;;;9.60;;
8757;SDS011;4415;42.152;24.744;2023-06-26T07:33:47;8.73;;;7.93;;
8757;SDS011;4415;42.152;24.744;2023-06-26T07:36:12;11.55;;;8.32;;
8757;SDS011;4415;42.152;24.744;2023-06-26T07:38:38;11.43;;;7.93;;
8757;SDS011;4415;42.152;24.744;2023-06-26T07:41:03;11.98;;;7.32;;
8757;SDS011;4415;42.152;24.744;2023-06-26T07:43:29;7.43;;;6.78;;
8757;SDS011;4415;42.152;24.744;2023-06-26T07:45:54;7.50;;;6.70;;
8757;SDS011;4415;42.152;24.744;2023-06-26T07:48:20;7.50;;;6.75;;
8757;SDS011;4415;42.152;24.744;2023-06-26T07:50:45;6.88;;;6.38;;
8757;SDS011;4415;42.152;24.744;2023-06-26T07:53:10;6.75;;;6.10;;
8757;SDS011;4415;42.152;24.744;2023-06-26T07:55:36;8.15;;;7.45;;
8757;SDS011;4415;42.152;24.744;2023-06-26T07:58:01;7.13;;;6.55;;
8757;SDS011;4415;42.152;24.744;2023-06-26T08:00:27;8.00;;;7.30;;
8757;SDS011;4415;42.152;24.744;2023-06-26T08:02:52;13.95;;;7.47;;
8757;SDS011;4415;42.152;24.744;2023-06-26T08:05:18;7.88;;;7.28;;
8757;SDS011;4415;42.152;24.744;2023-06-26T08:07:43;7.25;;;6.55;;
8757;SDS011;4415;42.152;24.744;2023-06-26T08:10:09;7.70;;;7.10;;
8757;SDS011;4415;42.152;24.744;2023-06-26T08:12:35;13.88;;;11.73;;
8757;SDS011;4415;42.152;24.744;2023-06-26T08:15:02;16.15;;;12.05;;
8757;SDS011;4415;42.152;24.744;2023-06-26T08:17:28;13.20;;;10.30;;
8757;SDS011;4415;42.152;24.744;2023-06-26T08:19:53;7.70;;;7.10;;
8757;SDS011;4415;42.152;24.744;2023-06-26T08:22:19;10.05;;;7.45;;
8757;SDS011;4415;42.152;24.744;2023-06-26T08:24:44;13.90;;;8.95;;
8757;SDS011;4415;42.152;24.744;2023-06-26T08:27:09;23.25;;;11.30;;
8757;SDS011;4415;42.152;24.744;2023-06-26T08:29:35;15.02;;;9.57;;
8757;SDS011;4415;42.152;24.744;2023-06-26T08:32:00;18.75;;;11.38;;
8757;SDS011;4415;42.152;24.744;2023-06-26T08:34:27;14.80;;;11.27;;
8757;SDS011;4415;42.152;24.744;2023-06-26T08:36:52;10.18;;;9.07;;
8757;SDS011;4415;42.152;24.744;2023-06-26T08:39:18;12.13;;;9.70;;
8757;SDS011;4415;42.152;24.744;2023-06-26T08:41:43;12.35;;;9.77;;
8757;SDS011;4415;42.152;24.744;2023-06-26T08:44:09;13.63;;;8.75;;
8757;SDS011;4415;42.152;24.744;2023-06-26T08:46:35;8.88;;;8.07;;
8757;SDS011;4415;42.152;24.744;2023-06-26T08:49:01;10.55;;;9.55;;
8757;SDS011;4415;42.152;24.744;2023-06-26T08:51:35;11.70;;;10.65;;
8757;SDS011;4415;42.152;24.744;2023-06-26T08:54:05;15.10;;;13.15;;
8757;SDS011;4415;42.152;24.744;2023-06-26T08:56:37;14.35;;;12.98;;
8757;SDS011;4415;42.152;24.744;2023-06-26T08:59:09;12.00;;;10.85;;
8757;SDS011;4415;42.152;24.744;2023-06-26T09:01:39;10.35;;;9.43;;
8757;SDS011;4415;42.152;24.744;2023-06-26T09:04:06;10.93;;;10.02;;
8757;SDS011;4415;42.152;24.744;2023-06-26T09:06:32;10.88;;;9.98;;
8757;SDS011;4415;42.152;24.744;2023-06-26T09:08:58;8.85;;;7.90;;
8757;SDS011;4415;42.152;24.744;2023-06-26T09:11:23;8.10;;;7.32;;
8757;SDS011;4415;42.152;24.744;2023-06-26T09:13:49;8.57;;;7.78;;
8757;SDS011;4415;42.152;24.744;2023-06-26T09:16:15;8.43;;;7.82;;
8757;SDS011;4415;42.152;24.744;2023-06-26T09:18:40;7.30;;;6.78;;
8757;SDS011;4415;42.152;24.744;2023-06-26T09:21:09;7.18;;;6.68;;
8757;SDS011;4415;42.152;24.744;2023-06-26T09:23:35;8.75;;;7.85;;
8757;SDS011;4415;42.152;24.744;2023-06-26T09:26:04;8.77;;;8.00;;
8757;SDS011;4415;42.152;24.744;2023-06-26T09:28:31;12.10;;;9.98;;
8757;SDS011;4415;42.152;24.744;2023-06-26T09:31:05;9.77;;;8.77;;
8757;SDS011;4415;42.152;24.744;2023-06-26T09:33:34;10.05;;;8.80;;
8757;SDS011;4415;42.152;24.744;2023-06-26T09:36:01;8.10;;;7.15;;
8757;SDS011;4415;42.152;24.744;2023-06-26T09:38:30;8.00;;;7.30;;
8757;SDS011;4415;42.152;24.744;2023-06-26T09:40:56;8.02;;;7.38;;
8757;SDS011;4415;42.152;24.744;2023-06-26T09:43:21;12.52;;;9.88;;
8757;SDS011;4415;42.152;24.744;2023-06-26T09:45:46;13.60;;;10.52;;
8757;SDS011;4415;42.152;24.744;2023-06-26T09:48:13;12.77;;;11.13;;
8757;SDS011;4415;42.152;24.744;2023-06-26T09:50:41;12.80;;;9.00;;
8757;SDS011;4415;42.152;24.744;2023-06-26T09:53:07;11.88;;;7.40;;
8757;SDS011;4415;42.152;24.744;2023-06-26T09:55:36;7.43;;;6.72;;
8757;SDS011;4415;42.152;24.744;2023-06-26T09:58:02;7.40;;;6.70;;
8757;SDS011;4415;42.152;24.744;2023-06-26T10:00:29;13.07;;;7.50;;
8757;SDS011;4415;42.152;24.744;2023-06-26T10:02:55;15.15;;;8.90;;
8757;SDS011;4415;42.152;24.744;2023-06-26T10:05:21;7.53;;;6.65;;
8757;SDS011;4415;42.152;24.744;2023-06-26T10:07:46;11.55;;;8.07;;
8757;SDS011;4415;42.152;24.744;2023-06-26T10:10:13;7.93;;;6.72;;
8757;SDS011;4415;42.152;24.744;2023-06-26T10:12:41;8.25;;;7.45;;
8757;SDS011;4415;42.152;24.744;2023-06-26T10:15:12;7.72;;;7.03;;
8757;SDS011;4415;42.152;24.744;2023-06-26T10:17:41;8.30;;;7.60;;
8757;SDS011;4415;42.152;24.744;2023-06-26T10:20:08;11.43;;;8.07;;
8757;SDS011;4415;42.152;24.744;2023-06-26T10:22:37;9.93;;;9.07;;
8757;SDS011;4415;42.152;24.744;2023-06-26T10:25:08;13.65;;;9.45;;
8757;SDS011;4415;42.152;24.744;2023-06-26T10:27:36;12.25;;;8.43;;
8757;SDS011;4415;42.152;24.744;2023-06-26T10:30:09;9.68;;;8.73;;
8757;SDS011;4415;42.152;24.744;2023-06-26T10:32:42;8.63;;;7.88;;
8757;SDS011;4415;42.152;24.744;2023-06-26T10:35:08;8.80;;;6.70;;
8757;SDS011;4415;42.152;24.744;2023-06-26T10:40:09;11.02;;;8.48;;
8757;SDS011;4415;42.152;24.744;2023-06-26T10:42:35;8.50;;;7.35;;
8757;SDS011;4415;42.152;24.744;2023-06-26T10:45:09;7.93;;;6.90;;
8757;SDS011;4415;42.152;24.744;2023-06-26T10:47:43;6.35;;;5.90;;
8757;SDS011;4415;42.152;24.744;2023-06-26T10:52:45;6.60;;;6.15;;
8757;SDS011;4415;42.152;24.744;2023-06-26T10:55:11;8.48;;;6.90;;
8757;SDS011;4415;42.152;24.744;2023-06-26T10:57:38;8.32;;;7.05;;
8757;SDS011;4415;42.152;24.744;2023-06-26T11:00:10;7.25;;;6.55;;
8757;SDS011;4415;42.152;24.744;2023-06-26T11:02:51;8.43;;;6.97;;
8757;SDS011;4415;42.152;24.744;2023-06-26T11:05:23;6.25;;;5.68;;
8757;SDS011;4415;42.152;24.744;2023-06-26T11:08:07;6.05;;;5.55;;
8757;SDS011;4415;42.152;24.744;2023-06-26T11:10:53;6.22;;;5.72;;
8757;SDS011;4415;42.152;24.744;2023-06-26T11:13:20;6.13;;;5.53;;
8757;SDS011;4415;42.152;24.744;2023-06-26T11:15:46;6.82;;;6.15;;
8757;SDS011;4415;42.152;24.744;2023-06-26T11:18:14;5.38;;;4.90;;
8757;SDS011;4415;42.152;24.744;2023-06-26T11:20:40;5.15;;;4.72;;
8757;SDS011;4415;42.152;24.744;2023-06-26T11:23:05;6.60;;;6.00;;
8757;SDS011;4415;42.152;24.744;2023-06-26T11:25:37;6.60;;;6.15;;
8757;SDS011;4415;42.152;24.744;2023-06-26T11:28:04;6.55;;;5.95;;
8757;SDS011;4415;42.152;24.744;2023-06-26T11:30:30;5.85;;;5.45;;
8757;SDS011;4415;42.152;24.744;2023-06-26T11:33:06;6.60;;;5.72;;
8757;SDS011;4415;42.152;24.744;2023-06-26T11:35:34;6.72;;;6.10;;
8757;SDS011;4415;42.152;24.744;2023-06-26T11:38:01;7.05;;;6.35;;
8757;SDS011;4415;42.152;24.744;2023-06-26T11:40:30;6.50;;;5.97;;
8757;SDS011;4415;42.152;24.744;2023-06-26T11:42:58;9.98;;;7.32;;
8757;SDS011;4415;42.152;24.744;2023-06-26T11:45:25;7.28;;;6.68;;
8757;SDS011;4415;42.152;24.744;2023-06-26T11:47:54;7.90;;;7.30;;
8757;SDS011;4415;42.152;24.744;2023-06-26T11:50:20;7.90;;;7.00;;
8757;SDS011;4415;42.152;24.744;2023-06-26T11:52:45;6.88;;;6.38;;
8757;SDS011;4415;42.152;24.744;2023-06-26T11:55:18;7.53;;;6.78;;
8757;SDS011;4415;42.152;24.744;2023-06-26T11:57:47;7.28;;;6.68;;
8757;SDS011;4415;42.152;24.744;2023-06-26T12:00:14;8.95;;;7.18;;
8757;SDS011;4415;42.152;24.744;2023-06-26T12:02:41;9.18;;;8.25;;
8757;SDS011;4415;42.152;24.744;2023-06-26T12:05:08;8.38;;;7.68;;
8757;SDS011;4415;42.152;24.744;2023-06-26T12:07:34;8.93;;;8.13;;
8757;SDS011;4415;42.152;24.744;2023-06-26T12:10:02;9.52;;;8.63;;
8757;SDS011;4415;42.152;24.744;2023-06-26T12:12:29;8.23;;;7.63;;
8757;SDS011;4415;42.152;24.744;2023-06-26T12:14:56;8.95;;;8.10;;
8757;SDS011;4415;42.152;24.744;2023-06-26T12:17:23;8.20;;;7.40;;
8757;SDS011;4415;42.152;24.744;2023-06-26T12:19:50;8.48;;;7.88;;
8757;SDS011;4415;42.152;24.744;2023-06-26T12:22:16;9.52;;;7.90;;
8757;SDS011;4415;42.152;24.744;2023-06-26T12:24:43;6.70;;;6.20;;
8757;SDS011;4415;42.152;24.744;2023-06-26T12:27:09;6.78;;;5.57;;
8757;SDS011;4415;42.152;24.744;2023-06-26T12:29:37;6.15;;;5.57;;
8757;SDS011;4415;42.152;24.744;2023-06-26T12:32:03;5.82;;;5.32;;
8757;SDS011;4415;42.152;24.744;2023-06-26T12:34:31;5.30;;;5.00;;
8757;SDS011;4415;42.152;24.744;2023-06-26T12:37:02;6.22;;;5.57;;
8757;SDS011;4415;42.152;24.744;2023-06-26T12:39:29;5.65;;;5.00;;
8757;SDS011;4415;42.152;24.744;2023-06-26T12:44:29;6.40;;;5.80;;
8757;SDS011;4415;42.152;24.744;2023-06-26T12:46:59;7.53;;;5.78;;
8757;SDS011;4415;42.152;24.744;2023-06-26T12:49:45;5.80;;;5.40;;
8757;SDS011;4415;42.152;24.744;2023-06-26T12:52:15;5.65;;;5.32;;
8757;SDS011;4415;42.152;24.744;2023-06-26T12:54:41;5.80;;;5.35;;
8757;SDS011;4415;42.152;24.744;2023-06-26T12:57:08;7.78;;;6.35;;
8757;SDS011;4415;42.152;24.744;2023-06-26T12:59:37;7.35;;;6.65;;
8757;SDS011;4415;42.152;24.744;2023-06-26T13:02:04;6.85;;;6.28;;
8757;SDS011;4415;42.152;24.744;2023-06-26T13:04:30;7.53;;;6.85;;
8757;SDS011;4415;42.152;24.744;2023-06-26T13:06:56;6.47;;;5.93;;
8757;SDS011;4415;42.152;24.744;2023-06-26T13:09:24;6.15;;;5.55;;
8757;SDS011;4415;42.152;24.744;2023-06-26T13:11:51;4.80;;;4.40;;
8757;SDS011;4415;42.152;24.744;2023-06-26T13:14:19;4.90;;;4.50;;
8757;SDS011;4415;42.152;24.744;2023-06-26T13:16:45;4.43;;;4.03;;
8757;SDS011;4415;42.152;24.744;2023-06-26T13:19:11;4.82;;;4.43;;
8757;SDS011;4415;42.152;24.744;2023-06-26T13:21:37;5.00;;;4.60;;
8757;SDS011;4415;42.152;24.744;2023-06-26T13:24:03;6.18;;;5.55;;
8757;SDS011;4415;42.152;24.744;2023-06-26T13:26:28;5.57;;;5.15;;
8757;SDS011;4415;42.152;24.744;2023-06-26T13:28:54;5.93;;;5.53;;
8757;SDS011;4415;42.152;24.744;2023-06-26T13:31:20;6.32;;;5.82;;
8757;SDS011;4415;42.152;24.744;2023-06-26T13:33:46;9.60;;;5.68;;
8757;SDS011;4415;42.152;24.744;2023-06-26T13:36:16;6.80;;;6.05;;
8757;SDS011;4415;42.152;24.744;2023-06-26T13:38:41;5.60;;;5.10;;
8757;SDS011;4415;42.152;24.744;2023-06-26T13:41:07;4.63;;;4.22;;
8757;SDS011;4415;42.152;24.744;2023-06-26T13:43:32;5.28;;;4.78;;
8757;SDS011;4415;42.152;24.744;2023-06-26T13:45:58;4.40;;;4.00;;
8757;SDS011;4415;42.152;24.744;2023-06-26T13:48:23;4.45;;;4.07;;
8757;SDS011;4415;42.152;24.744;2023-06-26T13:50:51;4.38;;;3.90;;
8757;SDS011;4415;42.152;24.744;2023-06-26T13:53:17;3.53;;;3.33;;
8757;SDS011;4415;42.152;24.744;2023-06-26T13:55:42;4.13;;;3.70;;
8757;SDS011;4415;42.152;24.744;2023-06-26T13:58:08;3.90;;;3.70;;
8757;SDS011;4415;42.152;24.744;2023-06-26T14:00:35;4.38;;;4.05;;
8757;SDS011;4415;42.152;24.744;2023-06-26T14:03:01;4.15;;;3.85;;
8757;SDS011;4415;42.152;24.744;2023-06-26T14:05:28;3.90;;;3.70;;
8757;SDS011;4415;42.152;24.744;2023-06-26T14:07:53;4.00;;;3.70;;
8757;SDS011;4415;42.152;24.744;2023-06-26T14:10:19;4.28;;;3.92;;
8757;SDS011;4415;42.152;24.744;2023-06-26T14:12:45;4.13;;;3.83;;
8757;SDS011;4415;42.152;24.744;2023-06-26T14:15:11;4.10;;;3.67;;
8757;SDS011;4415;42.152;24.744;2023-06-26T14:17:36;4.70;;;4.28;;
8757;SDS011;4415;42.152;24.744;2023-06-26T14:20:04;9.55;;;4.60;;
8757;SDS011;4415;42.152;24.744;2023-06-26T14:22:41;9.52;;;5.75;;
8757;SDS011;4415;42.152;24.744;2023-06-26T14:25:07;6.85;;;5.03;;
8757;SDS011;4415;42.152;24.744;2023-06-26T14:27:33;5.28;;;4.85;;
8757;SDS011;4415;42.152;24.744;2023-06-26T14:29:58;5.70;;;4.72;;
8757;SDS011;4415;42.152;24.744;2023-06-26T14:32:24;4.80;;;4.40;;
8757;SDS011;4415;42.152;24.744;2023-06-26T14:34:49;5.30;;;4.03;;
8757;SDS011;4415;42.152;24.744;2023-06-26T14:37:14;5.45;;;4.60;;
8757;SDS011;4415;42.152;24.744;2023-06-26T14:39:41;8.30;;;4.70;;
8757;SDS011;4415;42.152;24.744;2023-06-26T14:42:06;5.07;;;4.35;;
8757;SDS011;4415;42.152;24.744;2023-06-26T14:44:32;4.78;;;4.38;;
8757;SDS011;4415;42.152;24.744;2023-06-26T14:46:57;4.53;;;4.18;;
8757;SDS011;4415;42.152;24.744;2023-06-26T14:49:23;4.00;;;3.70;;
8757;SDS011;4415;42.152;24.744;2023-06-26T14:51:48;4.63;;;4.30;;
8757;SDS011;4415;42.152;24.744;2023-06-26T14:54:13;7.32;;;5.13;;
8757;SDS011;4415;42.152;24.744;2023-06-26T14:56:39;5.22;;;4.50;;
8757;SDS011;4415;42.152;24.744;2023-06-26T14:59:04;5.70;;;4.57;;
8757;SDS011;4415;42.152;24.744;2023-06-26T15:01:32;4.40;;;4.00;;